createdAt,value
2022-10-21T00:00:27.888Z,2.88
2022-10-21T00:03:00.358Z,0.55
2022-10-21T00:05:30.790Z,1.65
2022-10-21T00:08:01.063Z,0.38
2022-10-21T00:10:32.755Z,0.30
2022-10-21T00:13:03.033Z,0.50
2022-10-21T00:15:33.247Z,1.85
2022-10-21T00:18:03.459Z,2.10
2022-10-21T00:20:36.101Z,1.00
2022-10-21T00:23:09.894Z,0.50
2022-10-21T00:25:41.616Z,0.30
2022-10-21T00:28:11.835Z,1.30
2022-10-21T00:30:49.369Z,0.75
2022-10-21T00:33:20.115Z,0.80
2022-10-21T00:36:05.144Z,0.43
2022-10-21T00:38:38.253Z,0.82
2022-10-21T00:41:10.358Z,1.38
2022-10-21T00:44:03.186Z,0.98
2022-10-21T00:46:39.358Z,1.70
2022-10-21T00:49:19.211Z,0.25
2022-10-21T00:51:55.789Z,0.20
2022-10-21T00:56:59.300Z,0.30
2022-10-21T00:59:35.707Z,0.60
2022-10-21T01:02:07.564Z,0.77
2022-10-21T01:04:38.120Z,0.73
2022-10-21T01:07:09.617Z,0.15
2022-10-21T01:09:39.838Z,0.30
2022-10-21T01:12:17.180Z,0.50
2022-10-21T01:14:59.631Z,1.45
2022-10-21T01:17:44.000Z,1.52
2022-10-21T01:20:39.748Z,0.35
2022-10-21T01:23:32.243Z,0.70
2022-10-21T01:26:05.505Z,0.75
2022-10-21T01:28:42.134Z,0.98
2022-10-21T01:34:03.696Z,0.65
2022-10-21T01:36:50.070Z,1.08
2022-10-21T01:39:44.957Z,2.60
2022-10-21T01:42:42.815Z,1.08
2022-10-21T01:45:48.846Z,0.90
2022-10-21T01:48:31.506Z,0.90
2022-10-21T01:51:12.180Z,0.43
2022-10-21T01:54:03.181Z,1.60
2022-10-21T01:56:36.027Z,0.55
2022-10-21T01:59:07.028Z,1.45
2022-10-21T02:01:39.909Z,0.47
2022-10-21T02:04:12.863Z,1.27
2022-10-21T02:06:43.171Z,1.30
2022-10-21T02:09:13.630Z,0.80
2022-10-21T02:11:46.389Z,1.83
2022-10-21T02:14:38.888Z,0.28
2022-10-21T02:17:12.400Z,0.60
2022-10-21T02:19:43.222Z,0.65
2022-10-21T02:22:15.817Z,0.60
2022-10-21T02:24:56.912Z,2.35
2022-10-21T02:27:28.412Z,1.55
2022-10-21T02:30:06.121Z,0.77
2022-10-21T02:32:46.972Z,0.95
2022-10-21T02:35:27.647Z,0.65
2022-10-21T02:38:40.632Z,0.55
2022-10-21T02:41:17.818Z,0.98
2022-10-21T02:44:01.708Z,1.60
2022-10-21T02:46:51.464Z,1.55
2022-10-21T02:49:22.228Z,1.42
2022-10-21T02:51:52.643Z,0.77
2022-10-21T02:54:23.652Z,1.13
2022-10-21T02:56:56.027Z,1.45
2022-10-21T02:59:26.661Z,1.77
2022-10-21T03:01:57.235Z,2.67
2022-10-21T03:04:27.990Z,2.33
2022-10-21T03:06:58.785Z,2.08
2022-10-21T03:09:29.384Z,1.77
2022-10-21T03:11:59.974Z,2.92
2022-10-21T03:14:30.621Z,2.28
2022-10-21T03:17:01.610Z,2.53
2022-10-21T03:19:33.107Z,1.75
2022-10-21T03:22:03.758Z,2.15
2022-10-21T03:24:33.969Z,1.52
2022-10-21T03:27:04.325Z,3.00
2022-10-21T03:29:35.017Z,3.67
2022-10-21T03:32:05.263Z,4.15
2022-10-21T03:34:35.520Z,1.65
2022-10-21T03:37:05.686Z,1.83
2022-10-21T03:39:35.857Z,2.35
2022-10-21T03:42:06.110Z,2.60
2022-10-21T03:44:36.336Z,3.15
2022-10-21T03:47:06.488Z,2.20
2022-10-21T03:49:36.666Z,3.10
2022-10-21T03:52:08.211Z,2.90
2022-10-21T03:54:38.471Z,3.03
2022-10-21T03:57:08.657Z,2.75
2022-10-21T03:59:39.154Z,2.15
2022-10-21T04:02:09.703Z,1.80
2022-10-21T04:04:40.277Z,2.50
2022-10-21T04:07:10.417Z,2.63
2022-10-21T04:09:41.222Z,2.42
2022-10-21T04:12:12.727Z,3.05
2022-10-21T04:14:43.230Z,2.10
2022-10-21T04:17:13.762Z,2.97
2022-10-21T04:19:44.573Z,2.10
2022-10-21T04:22:15.240Z,2.10
2022-10-21T04:24:46.028Z,5.57
2022-10-21T04:27:16.645Z,2.35
2022-10-21T04:29:47.322Z,1.98
2022-10-21T04:32:17.446Z,2.03
2022-10-21T04:34:48.510Z,2.70
2022-10-21T04:37:19.166Z,1.83
2022-10-21T04:39:49.758Z,3.70
2022-10-21T04:42:21.144Z,2.30
2022-10-21T04:44:53.371Z,2.88
2022-10-21T04:47:24.065Z,3.47
2022-10-21T04:49:54.742Z,3.35
2022-10-21T04:52:25.378Z,4.22
2022-10-21T04:54:58.371Z,3.10
2022-10-21T04:57:29.091Z,7.47
2022-10-21T04:59:59.903Z,3.75
2022-10-21T05:02:30.496Z,3.55
2022-10-21T05:05:00.787Z,2.60
2022-10-21T05:07:32.951Z,1.95
2022-10-21T05:10:03.160Z,2.80
2022-10-21T05:15:06.309Z,1.42
2022-10-21T05:17:38.628Z,1.83
2022-10-21T05:20:10.139Z,2.00
2022-10-21T05:22:40.595Z,4.03
2022-10-21T05:25:11.680Z,3.53
2022-10-21T05:27:41.822Z,2.63
2022-10-21T05:30:14.213Z,3.80
2022-10-21T05:32:45.220Z,4.07
2022-10-21T05:35:16.169Z,2.90
2022-10-21T05:37:46.761Z,2.70
2022-10-21T05:40:19.307Z,3.17
2022-10-21T05:42:50.528Z,3.55
2022-10-21T05:45:22.535Z,2.08
2022-10-21T05:47:55.271Z,2.17
2022-10-21T05:50:26.011Z,2.78
2022-10-21T05:53:02.192Z,2.25
2022-10-21T05:55:34.490Z,4.75
2022-10-21T05:58:05.132Z,2.20
2022-10-21T06:00:37.102Z,3.03
2022-10-21T06:03:09.503Z,4.07
2022-10-21T06:05:40.201Z,2.25
2022-10-21T06:08:10.837Z,3.78
2022-10-21T06:10:42.737Z,2.85
2022-10-21T06:13:13.609Z,2.97
2022-10-21T06:15:48.757Z,3.88
2022-10-21T06:18:21.647Z,2.75
2022-10-21T06:20:52.766Z,3.60
2022-10-21T06:23:23.480Z,5.10
2022-10-21T06:26:12.926Z,4.50
2022-10-21T06:28:46.753Z,2.60
2022-10-21T06:31:22.328Z,4.10
2022-10-21T06:33:54.137Z,3.43
2022-10-21T06:36:25.007Z,4.13
2022-10-21T06:38:56.003Z,5.70
2022-10-21T06:41:26.774Z,3.58
2022-10-21T06:43:57.383Z,3.10
2022-10-21T06:46:28.646Z,3.53
2022-10-21T06:49:00.294Z,3.55
2022-10-21T06:51:33.437Z,3.13
2022-10-21T06:54:04.786Z,3.67
2022-10-21T06:56:35.419Z,3.50
2022-10-21T06:59:07.769Z,3.10
2022-10-21T07:01:59.249Z,3.75
2022-10-21T07:04:30.505Z,3.63
2022-10-21T07:07:01.227Z,4.60
2022-10-21T07:09:32.857Z,3.30
2022-10-21T07:12:04.687Z,3.83
2022-10-21T07:14:35.430Z,3.25
2022-10-21T07:17:07.450Z,4.90
2022-10-21T07:19:38.067Z,4.10
2022-10-21T07:22:08.667Z,4.07
2022-10-21T07:24:39.492Z,4.90
2022-10-21T07:27:10.318Z,8.48
2022-10-21T07:29:41.269Z,7.38
2022-10-21T07:32:11.905Z,4.45
2022-10-21T07:34:43.498Z,3.95
2022-10-21T07:37:14.318Z,3.38
2022-10-21T07:39:44.415Z,7.43
2022-10-21T07:42:14.697Z,7.50
2022-10-21T07:44:47.840Z,5.70
2022-10-21T07:47:18.661Z,6.00
2022-10-21T07:49:54.109Z,8.05
2022-10-21T07:52:25.237Z,7.45
2022-10-21T07:54:55.948Z,6.63
2022-10-21T07:57:26.949Z,4.40
2022-10-21T07:59:57.577Z,4.93
2022-10-21T08:02:28.424Z,5.53
2022-10-21T08:04:59.359Z,4.65
2022-10-21T08:07:30.350Z,3.28
2022-10-21T08:10:01.218Z,3.38
2022-10-21T08:12:32.285Z,3.95
2022-10-21T08:15:03.235Z,6.85
2022-10-21T08:17:34.147Z,8.55
2022-10-21T08:20:04.307Z,9.52
2022-10-21T08:22:34.534Z,5.53
2022-10-21T08:25:24.303Z,6.57
2022-10-21T08:28:03.641Z,9.57
2022-10-21T08:30:35.712Z,9.13
2022-10-21T08:33:06.019Z,7.07
2022-10-21T08:35:36.701Z,6.38
2022-10-21T08:40:53.613Z,5.95
2022-10-21T08:43:38.007Z,11.95
2022-10-21T08:46:27.339Z,8.77
2022-10-21T08:49:08.256Z,9.98
2022-10-21T08:51:46.223Z,7.95
2022-10-21T08:54:29.275Z,6.72
2022-10-21T08:57:03.546Z,7.30
2022-10-21T08:59:34.435Z,7.35
2022-10-21T09:02:35.431Z,5.35
2022-10-21T09:05:27.764Z,6.75
2022-10-21T09:08:33.758Z,6.63
2022-10-21T09:11:07.466Z,5.75
2022-10-21T09:13:43.923Z,9.43
2022-10-21T09:16:22.080Z,10.85
2022-10-21T09:19:09.261Z,8.55
2022-10-21T09:24:23.128Z,9.20
2022-10-21T09:26:55.354Z,5.80
2022-10-21T09:29:36.211Z,8.13
2022-10-21T09:32:34.169Z,7.68
2022-10-21T09:35:35.144Z,8.45
2022-10-21T09:38:51.736Z,6.80
2022-10-21T09:41:25.535Z,6.95
2022-10-21T09:43:56.223Z,7.20
2022-10-21T09:46:26.830Z,6.88
2022-10-21T09:49:36.327Z,8.02
2022-10-21T09:51:51.850Z,7.13
2022-10-21T09:54:26.317Z,7.50
2022-10-21T09:57:33.423Z,9.15
2022-10-21T10:00:08.384Z,10.23
2022-10-21T10:02:47.636Z,10.35
2022-10-21T10:05:39.512Z,7.63
2022-10-21T10:08:28.661Z,7.70
2022-10-21T10:11:11.317Z,9.38
2022-10-21T10:13:51.666Z,8.88
2022-10-21T10:16:35.994Z,8.52
2022-10-21T10:19:29.557Z,6.78
2022-10-21T10:22:18.770Z,11.00
2022-10-21T10:24:49.399Z,10.30
2022-10-21T10:27:25.515Z,9.13
2022-10-21T10:30:00.804Z,8.68
2022-10-21T10:32:38.375Z,13.90
2022-10-21T10:35:20.186Z,10.27
2022-10-21T10:37:51.973Z,10.77
2022-10-21T10:40:28.949Z,8.15
2022-10-21T10:43:17.527Z,9.43
2022-10-21T10:46:22.416Z,10.75
2022-10-21T10:48:56.900Z,9.98
2022-10-21T10:51:34.546Z,6.93
2022-10-21T10:54:05.148Z,10.35
2022-10-21T10:57:01.636Z,6.80
2022-10-21T10:59:57.461Z,4.53
2022-10-21T11:02:40.069Z,7.07
2022-10-21T11:05:39.697Z,7.25
2022-10-21T11:08:25.539Z,5.95
2022-10-21T11:11:03.571Z,5.95
2022-10-21T11:13:41.821Z,7.13
2022-10-21T11:16:20.295Z,7.82
2022-10-21T11:19:15.500Z,5.22
2022-10-21T11:21:50.318Z,5.57
2022-10-21T11:24:39.466Z,6.50
2022-10-21T11:27:33.489Z,3.85
2022-10-21T11:30:19.947Z,4.50
2022-10-21T11:33:11.764Z,3.88
2022-10-21T11:36:20.967Z,4.05
2022-10-21T11:39:00.806Z,3.65
2022-10-21T11:41:38.257Z,5.80
2022-10-21T11:44:28.541Z,4.20
2022-10-21T11:47:13.379Z,6.30
2022-10-21T11:50:22.036Z,6.20
2022-10-21T11:52:53.891Z,4.07
2022-10-21T11:55:50.865Z,5.07
2022-10-21T11:58:39.804Z,4.20
2022-10-21T12:01:18.945Z,2.75
2022-10-21T12:03:58.125Z,4.50
2022-10-21T12:06:44.392Z,5.72
2022-10-21T12:09:41.094Z,6.87
2022-10-21T12:12:23.937Z,4.05
2022-10-21T12:15:01.118Z,4.60
2022-10-21T12:20:21.313Z,4.40
2022-10-21T12:23:02.810Z,6.32
2022-10-21T12:26:04.135Z,3.53
2022-10-21T12:29:04.408Z,3.95
2022-10-21T12:32:05.980Z,4.13
2022-10-21T12:34:37.180Z,4.57
2022-10-21T12:37:29.015Z,4.90
2022-10-21T12:40:15.489Z,6.50
2022-10-21T12:43:00.363Z,4.35
2022-10-21T12:45:40.799Z,5.95
2022-10-21T12:48:36.698Z,4.10
2022-10-21T12:51:19.721Z,3.45
2022-10-21T12:53:58.499Z,4.70
2022-10-21T12:56:46.116Z,3.78
2022-10-21T12:59:34.535Z,7.55
2022-10-21T13:02:08.193Z,5.20
2022-10-21T13:04:39.789Z,4.28
2022-10-21T13:07:19.759Z,4.43
2022-10-21T13:09:53.389Z,3.28
2022-10-21T13:12:26.981Z,5.28
2022-10-21T13:15:24.364Z,3.75
2022-10-21T13:20:25.416Z,2.53
2022-10-21T13:23:03.521Z,3.80
2022-10-21T13:25:38.566Z,2.65
2022-10-21T13:28:28.811Z,4.18
2022-10-21T13:31:02.069Z,4.13
2022-10-21T13:33:39.492Z,4.63
2022-10-21T13:36:18.615Z,2.95
2022-10-21T13:39:05.294Z,2.85
2022-10-21T13:41:36.064Z,3.38
2022-10-21T13:44:25.336Z,3.03
2022-10-21T13:46:55.776Z,3.72
2022-10-21T13:49:35.299Z,3.88
2022-10-21T13:52:12.882Z,3.47
2022-10-21T13:57:18.045Z,2.80
2022-10-21T13:59:48.656Z,2.75
2022-10-21T14:02:30.402Z,2.88
2022-10-21T14:05:01.113Z,3.38
2022-10-21T14:07:32.066Z,3.47
2022-10-21T14:10:09.433Z,3.50
2022-10-21T14:12:46.035Z,4.65
2022-10-21T14:18:01.537Z,3.90
2022-10-21T14:20:36.252Z,3.60
2022-10-21T14:23:11.723Z,3.55
2022-10-21T14:25:42.022Z,4.28
2022-10-21T14:28:13.919Z,3.00
2022-10-21T14:30:45.146Z,3.40
2022-10-21T14:33:21.566Z,3.95
2022-10-21T14:36:10.590Z,2.85
2022-10-21T14:38:55.635Z,3.95
2022-10-21T14:41:40.169Z,4.68
2022-10-21T14:44:23.233Z,4.50
2022-10-21T14:46:58.660Z,3.05
2022-10-21T14:49:35.739Z,4.72
2022-10-21T14:52:11.327Z,2.30
2022-10-21T14:55:01.096Z,2.70
2022-10-21T14:57:52.340Z,4.00
2022-10-21T15:00:44.705Z,3.70
2022-10-21T15:03:15.408Z,3.05
2022-10-21T15:05:49.549Z,3.28
2022-10-21T15:08:34.933Z,4.47
2022-10-21T15:11:08.581Z,2.33
2022-10-21T15:13:38.819Z,3.42
2022-10-21T15:16:21.877Z,3.97
2022-10-21T15:18:56.000Z,4.25
2022-10-21T15:21:40.164Z,3.90
2022-10-21T15:24:18.992Z,5.70
2022-10-21T15:26:51.902Z,3.38
2022-10-21T15:29:29.652Z,3.60
2022-10-21T15:32:03.144Z,3.67
2022-10-21T15:34:35.563Z,3.13
2022-10-21T15:37:06.153Z,4.35
2022-10-21T15:39:36.403Z,3.47
2022-10-21T15:42:07.903Z,5.05
2022-10-21T15:44:38.191Z,2.50
2022-10-21T15:47:12.899Z,3.03
2022-10-21T15:49:45.233Z,3.45
2022-10-21T15:52:16.543Z,4.38
2022-10-21T15:54:47.130Z,4.60
2022-10-21T15:57:26.534Z,5.97
2022-10-21T15:59:56.736Z,4.78
2022-10-21T16:02:26.963Z,3.72
2022-10-21T16:04:57.074Z,4.45
2022-10-21T16:07:31.139Z,4.13
2022-10-21T16:10:01.424Z,5.07
2022-10-21T16:12:32.079Z,5.40
2022-10-21T16:15:02.450Z,5.55
2022-10-21T16:17:34.037Z,5.68
2022-10-21T16:20:04.318Z,6.05
2022-10-21T16:22:34.567Z,5.28
2022-10-21T16:25:04.715Z,4.60
2022-10-21T16:27:44.091Z,4.90
2022-10-21T16:30:29.730Z,5.38
2022-10-21T16:33:01.615Z,4.55
2022-10-21T16:35:31.988Z,4.95
2022-10-21T16:38:02.703Z,4.43
2022-10-21T16:40:36.824Z,5.63
2022-10-21T16:43:07.583Z,5.30
2022-10-21T16:45:38.317Z,5.93
2022-10-21T16:48:08.649Z,6.53
2022-10-21T16:50:47.133Z,5.80
2022-10-21T16:53:19.315Z,6.60
2022-10-21T16:55:50.224Z,5.60
2022-10-21T16:58:20.424Z,7.10
2022-10-21T17:00:51.961Z,6.47
2022-10-21T17:03:22.667Z,12.32
2022-10-21T17:05:54.268Z,11.65
2022-10-21T17:08:24.731Z,8.63
2022-10-21T17:10:55.113Z,9.45
2022-10-21T17:13:25.399Z,7.35
2022-10-21T17:15:55.558Z,7.80
2022-10-21T17:18:26.659Z,7.82
2022-10-21T17:20:58.793Z,7.55
2022-10-21T17:23:31.257Z,7.38
2022-10-21T17:26:01.859Z,8.38
2022-10-21T17:28:34.045Z,7.85
2022-10-21T17:31:04.697Z,16.40
2022-10-21T17:33:36.208Z,9.35
2022-10-21T17:36:06.834Z,6.95
2022-10-21T17:38:37.002Z,4.82
2022-10-21T17:41:08.812Z,10.02
2022-10-21T17:43:41.074Z,7.57
2022-10-21T17:46:19.851Z,6.78
2022-10-21T17:48:55.057Z,6.43
2022-10-21T17:51:27.387Z,5.53
2022-10-21T17:53:59.921Z,6.28
2022-10-21T17:56:31.821Z,8.07
2022-10-21T17:59:03.416Z,7.82
2022-10-21T18:01:35.159Z,5.55
2022-10-21T18:04:05.743Z,7.40
2022-10-21T18:06:36.078Z,5.88
2022-10-21T18:09:08.478Z,6.80
2022-10-21T18:11:41.779Z,4.93
2022-10-21T18:14:12.367Z,3.60
2022-10-21T18:16:42.960Z,5.53
2022-10-21T18:19:14.209Z,4.70
2022-10-21T18:21:44.390Z,4.47
2022-10-21T18:24:14.638Z,4.22
2022-10-21T18:26:44.797Z,4.05
2022-10-21T18:29:14.950Z,3.63
2022-10-21T18:31:45.483Z,5.80
2022-10-21T18:34:15.655Z,3.97
2022-10-21T18:36:46.142Z,4.32
2022-10-21T18:39:16.754Z,4.22
2022-10-21T18:41:47.277Z,4.45
2022-10-21T18:44:17.549Z,5.07
2022-10-21T18:46:50.234Z,5.28
2022-10-21T18:49:22.679Z,3.63
2022-10-21T18:51:53.337Z,4.82
2022-10-21T18:54:23.776Z,5.63
2022-10-21T18:56:54.709Z,5.43
2022-10-21T18:59:24.975Z,4.85
2022-10-21T19:01:56.537Z,4.68
2022-10-21T19:04:27.544Z,5.95
2022-10-21T19:06:57.745Z,6.25
2022-10-21T19:09:28.680Z,5.28
2022-10-21T19:12:01.251Z,9.38
2022-10-21T19:14:32.114Z,5.55
2022-10-21T19:17:03.036Z,6.20
2022-10-21T19:19:38.557Z,4.72
2022-10-21T19:22:09.614Z,8.15
2022-10-21T19:24:39.917Z,5.80
2022-10-21T19:27:10.361Z,6.85
2022-10-21T19:29:41.049Z,4.90
2022-10-21T19:32:11.736Z,4.32
2022-10-21T19:34:42.275Z,6.80
2022-10-21T19:37:14.175Z,6.20
2022-10-21T19:39:44.321Z,6.18
2022-10-21T19:42:14.865Z,3.83
2022-10-21T19:44:45.000Z,5.35
2022-10-21T19:47:15.565Z,3.95
2022-10-21T19:49:47.079Z,3.92
2022-10-21T19:52:17.313Z,4.65
2022-10-21T19:54:47.644Z,4.70
2022-10-21T19:57:17.901Z,4.70
2022-10-21T19:59:49.769Z,9.38
2022-10-21T20:02:19.936Z,4.43
2022-10-21T20:04:50.026Z,5.13
2022-10-21T20:07:20.275Z,5.40
2022-10-21T20:09:50.411Z,5.15
2022-10-21T20:12:20.561Z,5.95
2022-10-21T20:14:50.779Z,5.28
2022-10-21T20:17:21.087Z,5.20
2022-10-21T20:19:52.776Z,4.30
2022-10-21T20:22:22.971Z,6.18
2022-10-21T20:24:56.547Z,4.50
2022-10-21T20:27:26.749Z,8.52
2022-10-21T20:29:56.944Z,3.90
2022-10-21T20:32:27.821Z,4.50
2022-10-21T20:34:58.852Z,7.32
2022-10-21T20:37:29.078Z,5.13
2022-10-21T20:40:00.819Z,4.80
2022-10-21T20:42:31.026Z,4.90
2022-10-21T20:45:01.268Z,5.22
2022-10-21T20:47:31.561Z,4.15
2022-10-21T20:50:01.702Z,4.75
2022-10-21T20:52:31.863Z,5.43
2022-10-21T20:55:01.995Z,3.70
2022-10-21T20:57:33.325Z,3.85
2022-10-21T21:00:03.495Z,3.95
2022-10-21T21:02:33.927Z,2.60
2022-10-21T21:05:04.196Z,3.40
2022-10-21T21:07:34.844Z,3.28
2022-10-21T21:10:05.091Z,2.88
2022-10-21T21:12:35.275Z,4.45
2022-10-21T21:15:05.782Z,4.78
2022-10-21T21:17:36.017Z,4.55
2022-10-21T21:20:06.354Z,3.13
2022-10-21T21:22:40.398Z,6.10
2022-10-21T21:25:12.086Z,3.05
2022-10-21T21:27:43.264Z,4.82
2022-10-21T21:30:21.863Z,2.40
2022-10-21T21:32:52.096Z,2.78
2022-10-21T21:35:22.318Z,3.35
2022-10-21T21:37:52.756Z,2.65
2022-10-21T21:40:22.981Z,3.60
2022-10-21T21:42:53.572Z,2.25
2022-10-21T21:45:23.694Z,2.40
2022-10-21T21:47:55.015Z,2.08
2022-10-21T21:50:25.262Z,2.17
2022-10-21T21:52:55.429Z,2.90
2022-10-21T21:55:25.632Z,2.33
2022-10-21T21:57:55.866Z,3.58
2022-10-21T22:00:26.735Z,3.33
2022-10-21T22:02:57.202Z,3.40
2022-10-21T22:05:27.547Z,4.05
2022-10-21T22:07:59.102Z,4.03
2022-10-21T22:10:29.900Z,2.90
2022-10-21T22:13:00.459Z,1.85
2022-10-21T22:15:46.937Z,2.53
2022-10-21T22:18:18.992Z,2.45
2022-10-21T22:20:49.186Z,3.08
2022-10-21T22:23:22.186Z,4.55
2022-10-21T22:25:52.350Z,4.43
2022-10-21T22:28:26.991Z,2.53
2022-10-21T22:31:11.651Z,2.53
2022-10-21T22:36:12.791Z,1.58
2022-10-21T22:38:44.140Z,3.13
2022-10-21T22:41:15.786Z,2.13
2022-10-21T22:43:46.124Z,1.48
2022-10-21T22:49:08.271Z,2.60
2022-10-21T22:51:38.767Z,1.92
2022-10-21T22:54:19.297Z,1.90
2022-10-21T22:56:55.020Z,2.03
2022-10-21T22:59:25.248Z,3.00
2022-10-21T23:01:55.489Z,1.40
2022-10-21T23:04:25.668Z,0.85
2022-10-21T23:06:55.791Z,1.35
2022-10-21T23:09:26.104Z,1.38
2022-10-21T23:11:56.273Z,0.88
2022-10-21T23:14:26.493Z,1.05
2022-10-21T23:16:56.778Z,1.35
2022-10-21T23:19:27.522Z,1.05
2022-10-21T23:22:06.554Z,1.30
2022-10-21T23:24:37.600Z,1.17
2022-10-21T23:27:08.249Z,1.10
2022-10-21T23:29:39.764Z,1.10
2022-10-21T23:32:10.152Z,2.08
2022-10-21T23:34:40.578Z,0.88
2022-10-21T23:37:10.923Z,1.45
2022-10-21T23:39:42.616Z,1.10
2022-10-21T23:42:14.911Z,1.42
2022-10-21T23:44:45.999Z,2.72
2022-10-21T23:47:17.531Z,2.17
2022-10-21T23:49:48.194Z,1.45
2022-10-21T23:52:18.642Z,1.40
2022-10-21T23:54:49.092Z,1.77
2022-10-21T23:57:19.447Z,1.98
2022-10-21T23:59:49.803Z,1.88
